createdAt,value
2017-10-25T00:00:17.256Z,1009.53
2017-10-25T00:01:18.683Z,1009.52
2017-10-25T00:02:20.102Z,1009.52
2017-10-25T00:03:21.526Z,1009.54
2017-10-25T00:04:22.949Z,1009.54
2017-10-25T00:05:24.368Z,1009.47
2017-10-25T00:06:25.790Z,1009.45
2017-10-25T00:07:27.203Z,1009.43
2017-10-25T00:08:28.624Z,1009.48
2017-10-25T00:09:30.052Z,1009.43
2017-10-25T00:10:31.470Z,1009.44
2017-10-25T00:11:32.892Z,1009.49
2017-10-25T00:12:34.324Z,1009.41
2017-10-25T00:13:35.744Z,1009.47
2017-10-25T00:14:37.180Z,1009.44
2017-10-25T00:15:38.613Z,1009.45
2017-10-25T00:16:40.035Z,1009.48
2017-10-25T00:17:41.465Z,1009.47
2017-10-25T00:18:42.848Z,1009.45
2017-10-25T00:19:44.279Z,1009.38
2017-10-25T00:20:45.708Z,1009.35
2017-10-25T00:21:47.177Z,1009.32
2017-10-25T00:22:48.596Z,1009.32
2017-10-25T00:23:50.014Z,1009.31
2017-10-25T00:24:51.450Z,1009.35
2017-10-25T00:25:52.883Z,1009.33
2017-10-25T00:26:54.316Z,1009.27
2017-10-25T00:27:55.741Z,1009.29
2017-10-25T00:28:57.169Z,1009.35
2017-10-25T00:29:58.593Z,1009.33
2017-10-25T00:31:00.020Z,1009.37
2017-10-25T00:32:01.444Z,1009.32
2017-10-25T00:33:02.880Z,1009.39
2017-10-25T00:34:04.307Z,1009.37
2017-10-25T00:35:05.731Z,1009.38
2017-10-25T00:36:07.148Z,1009.39
2017-10-25T00:37:08.577Z,1009.39
2017-10-25T00:38:09.998Z,1009.36
2017-10-25T00:39:11.421Z,1009.34
2017-10-25T00:40:12.874Z,1009.37
2017-10-25T00:41:14.290Z,1009.41
2017-10-25T00:42:15.712Z,1009.41
2017-10-25T00:43:17.135Z,1009.41
2017-10-25T00:44:18.561Z,1009.43
2017-10-25T00:45:19.993Z,1009.44
2017-10-25T00:46:21.456Z,1009.40
2017-10-25T00:47:22.918Z,1009.39
2017-10-25T00:48:24.324Z,1009.42
2017-10-25T00:49:25.745Z,1009.37
2017-10-25T00:50:27.179Z,1009.38
2017-10-25T00:51:28.602Z,1009.30
2017-10-25T00:52:30.024Z,1009.32
2017-10-25T00:53:31.443Z,1009.30
2017-10-25T00:54:32.870Z,1009.30
2017-10-25T00:55:34.290Z,1009.27
2017-10-25T00:56:35.708Z,1009.33
2017-10-25T00:57:37.120Z,1009.28
2017-10-25T00:58:38.543Z,1009.32
2017-10-25T00:59:39.962Z,1009.29
2017-10-25T01:00:41.384Z,1009.34
2017-10-25T01:01:42.815Z,1009.31
2017-10-25T01:02:44.240Z,1009.32
2017-10-25T01:03:45.652Z,1009.30
2017-10-25T01:04:47.065Z,1009.29
2017-10-25T01:05:48.482Z,1009.26
2017-10-25T01:06:49.908Z,1009.26
2017-10-25T01:07:51.333Z,1009.26
2017-10-25T01:08:52.759Z,1009.26
2017-10-25T01:09:54.181Z,1009.28
2017-10-25T01:10:55.600Z,1009.28
2017-10-25T01:11:57.014Z,1009.23
2017-10-25T01:12:58.436Z,1009.20
2017-10-25T01:14:00.468Z,1009.23
2017-10-25T01:15:01.893Z,1009.25
2017-10-25T01:16:03.329Z,1009.22
2017-10-25T01:17:04.754Z,1009.15
2017-10-25T01:18:06.180Z,1009.15
2017-10-25T01:19:07.602Z,1009.15
2017-10-25T01:20:09.030Z,1009.14
2017-10-25T01:21:10.446Z,1009.16
2017-10-25T01:22:11.874Z,1009.17
2017-10-25T01:23:13.290Z,1009.14
2017-10-25T01:24:14.709Z,1009.13
2017-10-25T01:25:16.085Z,1009.12
2017-10-25T01:26:17.506Z,1009.10
2017-10-25T01:27:18.929Z,1009.14
2017-10-25T01:28:20.351Z,1009.11
2017-10-25T01:29:21.773Z,1009.09
2017-10-25T01:30:23.197Z,1009.12
2017-10-25T01:31:24.622Z,1009.09
2017-10-25T01:32:26.047Z,1009.09
2017-10-25T01:33:27.509Z,1009.07
2017-10-25T01:34:28.936Z,1009.09
2017-10-25T01:35:30.357Z,1009.07
2017-10-25T01:36:31.876Z,1009.05
2017-10-25T01:37:33.311Z,1009.05
2017-10-25T01:38:34.724Z,1009.08
2017-10-25T01:39:36.144Z,1009.11
2017-10-25T01:40:37.564Z,1009.11
2017-10-25T01:41:38.983Z,1009.13
2017-10-25T01:42:40.402Z,1009.15
2017-10-25T01:43:41.830Z,1009.13
2017-10-25T01:44:43.264Z,1009.18
2017-10-25T01:45:44.683Z,1009.07
2017-10-25T01:46:46.100Z,1009.15
2017-10-25T01:47:47.511Z,1009.10
2017-10-25T01:48:48.941Z,1009.09
2017-10-25T01:49:50.368Z,1009.14
2017-10-25T01:50:51.789Z,1009.09
2017-10-25T01:51:53.229Z,1009.05
2017-10-25T01:52:54.670Z,1009.12
2017-10-25T01:53:56.105Z,1009.10
2017-10-25T01:54:57.530Z,1009.07
2017-10-25T01:55:58.955Z,1009.06
2017-10-25T01:57:00.381Z,1009.08
2017-10-25T01:58:01.807Z,1009.01
2017-10-25T01:59:03.231Z,1009.01
2017-10-25T02:00:04.648Z,1009.06
2017-10-25T02:01:06.066Z,1009.08
2017-10-25T02:02:07.484Z,1009.01
2017-10-25T02:03:08.906Z,1009.01
2017-10-25T02:04:10.341Z,1009.01
2017-10-25T02:05:11.767Z,1009.01
2017-10-25T02:06:13.182Z,1009.03
2017-10-25T02:07:14.603Z,1009.01
2017-10-25T02:08:16.025Z,1009.03
2017-10-25T02:09:17.445Z,1008.98
2017-10-25T02:10:18.867Z,1008.93
2017-10-25T02:11:20.284Z,1008.95
2017-10-25T02:12:21.706Z,1008.94
2017-10-25T02:13:23.131Z,1008.96
2017-10-25T02:14:24.552Z,1008.89
2017-10-25T02:15:25.973Z,1008.92
2017-10-25T02:16:27.410Z,1008.91
2017-10-25T02:17:28.832Z,1008.91
2017-10-25T02:18:30.302Z,1008.94
2017-10-25T02:19:31.725Z,1008.97
2017-10-25T02:20:33.145Z,1008.92
2017-10-25T02:21:34.665Z,1008.99
2017-10-25T02:22:36.081Z,1008.99
2017-10-25T02:23:37.505Z,1008.98
2017-10-25T02:24:38.927Z,1008.99
2017-10-25T02:25:40.352Z,1008.99
2017-10-25T02:26:41.819Z,1008.99
2017-10-25T02:27:43.231Z,1009.00
2017-10-25T02:28:44.665Z,1008.97
2017-10-25T02:29:46.081Z,1008.95
2017-10-25T02:30:47.514Z,1008.94
2017-10-25T02:31:48.936Z,1008.93
2017-10-25T02:32:50.356Z,1008.93
2017-10-25T02:33:51.782Z,1008.89
2017-10-25T02:34:53.213Z,1008.90
2017-10-25T02:35:54.639Z,1008.91
2017-10-25T02:36:56.066Z,1008.89
2017-10-25T02:37:57.484Z,1008.92
2017-10-25T02:38:58.902Z,1008.92
2017-10-25T02:40:00.327Z,1008.92
2017-10-25T02:41:01.754Z,1008.90
2017-10-25T02:42:03.184Z,1008.88
2017-10-25T02:43:04.604Z,1008.91
2017-10-25T02:44:06.022Z,1008.90
2017-10-25T02:45:07.446Z,1008.94
2017-10-25T02:46:08.863Z,1008.88
2017-10-25T02:47:10.277Z,1008.91
2017-10-25T02:48:11.698Z,1008.89
2017-10-25T02:49:13.126Z,1008.90
2017-10-25T02:50:14.558Z,1008.89
2017-10-25T02:51:15.978Z,1008.89
2017-10-25T02:52:17.397Z,1008.90
2017-10-25T02:53:18.818Z,1008.92
2017-10-25T02:54:20.240Z,1008.90
2017-10-25T02:55:21.667Z,1008.87
2017-10-25T02:56:23.085Z,1008.92
2017-10-25T02:57:24.527Z,1008.85
2017-10-25T02:58:25.960Z,1008.83
2017-10-25T02:59:27.393Z,1008.87
2017-10-25T03:00:28.815Z,1008.82
2017-10-25T03:01:30.256Z,1008.82
2017-10-25T03:02:32.430Z,1008.83
2017-10-25T03:03:33.847Z,1008.80
2017-10-25T03:04:35.267Z,1008.80
2017-10-25T03:05:36.684Z,1008.80
2017-10-25T03:06:38.097Z,1008.73
2017-10-25T03:07:39.514Z,1008.77
2017-10-25T03:08:40.933Z,1008.71
2017-10-25T03:09:42.356Z,1008.71
2017-10-25T03:10:43.778Z,1008.71
2017-10-25T03:11:45.195Z,1008.72
2017-10-25T03:12:46.614Z,1008.77
2017-10-25T03:13:48.038Z,1008.76
2017-10-25T03:14:49.464Z,1008.76
2017-10-25T03:15:50.897Z,1008.74
2017-10-25T03:16:52.313Z,1008.76
2017-10-25T03:17:53.734Z,1008.71
2017-10-25T03:18:55.155Z,1008.77
2017-10-25T03:19:56.566Z,1008.78
2017-10-25T03:20:57.988Z,1008.78
2017-10-25T03:21:59.419Z,1008.74
2017-10-25T03:23:00.836Z,1008.69
2017-10-25T03:24:02.261Z,1008.69
2017-10-25T03:25:03.685Z,1008.67
2017-10-25T03:26:05.103Z,1008.68
2017-10-25T03:27:06.519Z,1008.70
2017-10-25T03:28:07.938Z,1008.62
2017-10-25T03:29:09.353Z,1008.60
2017-10-25T03:30:10.771Z,1008.57
2017-10-25T03:31:12.218Z,1008.55
2017-10-25T03:32:13.616Z,1008.58
2017-10-25T03:33:15.918Z,1008.61
2017-10-25T03:34:17.336Z,1008.56
2017-10-25T03:35:18.758Z,1008.52
2017-10-25T03:36:20.177Z,1008.55
2017-10-25T03:37:21.595Z,1008.52
2017-10-25T03:38:23.012Z,1008.51
2017-10-25T03:39:24.435Z,1008.55
2017-10-25T03:40:25.861Z,1008.55
2017-10-25T03:41:27.277Z,1008.48
2017-10-25T03:42:28.706Z,1008.53
2017-10-25T03:43:30.143Z,1008.48
2017-10-25T03:44:31.553Z,1008.51
2017-10-25T03:45:32.980Z,1008.48
2017-10-25T03:46:34.405Z,1008.44
2017-10-25T03:47:35.830Z,1008.44
2017-10-25T03:48:37.246Z,1008.36
2017-10-25T03:49:38.674Z,1008.34
2017-10-25T03:50:40.093Z,1008.36
2017-10-25T03:51:41.512Z,1008.39
2017-10-25T03:52:42.933Z,1008.38
2017-10-25T03:53:44.355Z,1008.43
2017-10-25T03:54:45.769Z,1008.42
2017-10-25T03:55:47.184Z,1008.44
2017-10-25T03:56:48.602Z,1008.48
2017-10-25T03:57:50.022Z,1008.47
2017-10-25T03:58:51.451Z,1008.47
2017-10-25T03:59:52.874Z,1008.43
2017-10-25T04:00:54.295Z,1008.47
2017-10-25T04:01:55.711Z,1008.51
2017-10-25T04:02:57.138Z,1008.52
2017-10-25T04:03:58.566Z,1008.51
2017-10-25T04:05:00.033Z,1008.50
2017-10-25T04:06:01.460Z,1008.46
2017-10-25T04:07:02.899Z,1008.48
2017-10-25T04:08:04.313Z,1008.52
2017-10-25T04:09:05.735Z,1008.48
2017-10-25T04:10:07.185Z,1008.50
2017-10-25T04:11:08.957Z,1008.53
2017-10-25T04:12:10.365Z,1008.52
2017-10-25T04:13:11.786Z,1008.54
2017-10-25T04:14:13.217Z,1008.46
2017-10-25T04:15:14.643Z,1008.52
2017-10-25T04:16:16.057Z,1008.52
2017-10-25T04:17:17.477Z,1008.52
2017-10-25T04:18:18.911Z,1008.56
2017-10-25T04:19:20.335Z,1008.54
2017-10-25T04:20:21.759Z,1008.48
2017-10-25T04:21:23.190Z,1008.52
2017-10-25T04:22:24.614Z,1008.49
2017-10-25T04:23:32.776Z,1008.49
2017-10-25T04:24:45.178Z,1008.44
2017-10-25T04:25:47.056Z,1008.45
2017-10-25T04:26:48.490Z,1008.48
2017-10-25T04:27:49.932Z,1008.41
2017-10-25T04:28:51.365Z,1008.42
2017-10-25T04:29:52.793Z,1008.42
2017-10-25T04:30:54.207Z,1008.43
2017-10-25T04:31:55.636Z,1008.41
2017-10-25T04:32:57.052Z,1008.41
2017-10-25T04:33:58.476Z,1008.48
2017-10-25T04:34:59.901Z,1008.53
2017-10-25T04:36:01.328Z,1008.48
2017-10-25T04:37:02.747Z,1008.48
2017-10-25T04:38:04.176Z,1008.49
2017-10-25T04:39:05.605Z,1008.51
2017-10-25T04:40:07.024Z,1008.49
2017-10-25T04:41:08.443Z,1008.49
2017-10-25T04:42:09.863Z,1008.50
2017-10-25T04:43:11.274Z,1008.50
2017-10-25T04:44:12.698Z,1008.47
2017-10-25T04:45:14.163Z,1008.43
2017-10-25T04:46:15.587Z,1008.36
2017-10-25T04:47:17.029Z,1008.27
2017-10-25T04:48:18.429Z,1008.32
2017-10-25T04:49:19.849Z,1008.27
2017-10-25T04:50:21.265Z,1008.30
2017-10-25T04:51:22.684Z,1008.23
2017-10-25T04:52:24.105Z,1008.22
2017-10-25T04:53:25.528Z,1008.27
2017-10-25T04:54:26.954Z,1008.23
2017-10-25T04:55:28.375Z,1008.29
2017-10-25T04:56:29.796Z,1008.28
2017-10-25T04:57:31.346Z,1008.27
2017-10-25T04:58:32.715Z,1008.27
2017-10-25T04:59:34.174Z,1008.26
2017-10-25T05:00:35.600Z,1008.27
2017-10-25T05:01:37.114Z,1008.18
2017-10-25T05:02:38.604Z,1008.28
2017-10-25T05:03:40.025Z,1008.38
2017-10-25T05:04:41.512Z,1008.34
2017-10-25T05:05:42.943Z,1008.34
2017-10-25T05:06:44.376Z,1008.34
2017-10-25T05:07:45.797Z,1008.38
2017-10-25T05:08:47.224Z,1008.37
2017-10-25T05:09:48.651Z,1008.41
2017-10-25T05:10:50.071Z,1008.38
2017-10-25T05:11:51.490Z,1008.36
2017-10-25T05:12:52.918Z,1008.36
2017-10-25T05:13:54.340Z,1008.30
2017-10-25T05:14:55.763Z,1008.24
2017-10-25T05:15:57.176Z,1008.28
2017-10-25T05:16:58.605Z,1008.29
2017-10-25T05:18:00.038Z,1008.21
2017-10-25T05:19:01.447Z,1008.19
2017-10-25T05:20:02.876Z,1008.23
2017-10-25T05:21:04.305Z,1008.22
2017-10-25T05:22:05.733Z,1008.23
2017-10-25T05:23:07.155Z,1008.16
2017-10-25T05:24:08.575Z,1008.24
2017-10-25T05:25:10.000Z,1008.24
2017-10-25T05:26:11.415Z,1008.19
2017-10-25T05:27:12.852Z,1008.24
2017-10-25T05:28:14.277Z,1008.24
2017-10-25T05:29:15.693Z,1008.24
2017-10-25T05:30:17.120Z,1008.24
2017-10-25T05:31:18.543Z,1008.25
2017-10-25T05:32:19.967Z,1008.22
2017-10-25T05:33:21.391Z,1008.20
2017-10-25T05:34:22.809Z,1008.16
2017-10-25T05:35:24.224Z,1008.18
2017-10-25T05:36:25.640Z,1008.13
2017-10-25T05:37:27.065Z,1008.14
2017-10-25T05:38:28.484Z,1008.20
2017-10-25T05:39:29.907Z,1008.11
2017-10-25T05:40:31.330Z,1008.09
2017-10-25T05:41:32.754Z,1008.07
2017-10-25T05:42:34.179Z,1007.99
2017-10-25T05:43:35.604Z,1008.06
2017-10-25T05:44:36.982Z,1007.98
2017-10-25T05:45:38.403Z,1007.97
2017-10-25T05:46:39.821Z,1008.00
2017-10-25T05:47:41.242Z,1008.01
2017-10-25T05:48:42.660Z,1008.04
2017-10-25T05:49:44.094Z,1008.07
2017-10-25T05:50:45.523Z,1008.08
2017-10-25T05:51:46.939Z,1008.06
2017-10-25T05:52:48.361Z,1008.02
2017-10-25T05:53:49.779Z,1008.03
2017-10-25T05:54:51.201Z,1008.02
2017-10-25T05:55:52.628Z,1008.01
2017-10-25T05:56:54.058Z,1007.99
2017-10-25T05:57:55.480Z,1007.99
2017-10-25T05:58:56.906Z,1008.07
2017-10-25T05:59:58.322Z,1008.00
2017-10-25T06:00:59.745Z,1008.03
2017-10-25T06:02:01.161Z,1008.08
2017-10-25T06:03:02.578Z,1008.06
2017-10-25T06:04:04.002Z,1008.03
2017-10-25T06:05:05.430Z,1008.09
2017-10-25T06:06:06.848Z,1008.09
2017-10-25T06:07:08.268Z,1008.13
2017-10-25T06:08:09.688Z,1008.11
2017-10-25T06:09:11.112Z,1008.12
2017-10-25T06:10:12.536Z,1008.03
2017-10-25T06:11:13.966Z,1008.01
2017-10-25T06:12:15.379Z,1008.02
2017-10-25T06:13:16.808Z,1008.06
2017-10-25T06:14:18.234Z,1008.05
2017-10-25T06:15:19.659Z,1007.90
2017-10-25T06:16:21.078Z,1007.93
2017-10-25T06:17:22.490Z,1007.97
2017-10-25T06:18:23.909Z,1008.01
2017-10-25T06:19:25.335Z,1008.01
2017-10-25T06:20:26.772Z,1008.02
2017-10-25T06:21:28.190Z,1008.06
2017-10-25T06:22:29.640Z,1008.06
2017-10-25T06:23:31.062Z,1007.98
2017-10-25T06:24:32.486Z,1008.00
2017-10-25T06:25:33.903Z,1008.01
2017-10-25T06:26:35.328Z,1007.94
2017-10-25T06:27:36.762Z,1007.91
2017-10-25T06:28:38.183Z,1007.93
2017-10-25T06:29:39.620Z,1008.02
2017-10-25T06:30:41.042Z,1008.03
2017-10-25T06:31:42.470Z,1008.04
2017-10-25T06:32:43.892Z,1008.11
2017-10-25T06:33:45.319Z,1008.10
2017-10-25T06:34:46.742Z,1008.11
2017-10-25T06:35:48.171Z,1008.13
2017-10-25T06:36:49.593Z,1008.12
2017-10-25T06:37:51.020Z,1008.09
2017-10-25T06:38:52.440Z,1008.12
2017-10-25T06:39:53.868Z,1008.11
2017-10-25T06:40:55.293Z,1008.16
2017-10-25T06:41:57.696Z,1008.12
2017-10-25T06:42:59.116Z,1008.10
2017-10-25T06:44:00.548Z,1008.15
2017-10-25T06:45:01.992Z,1008.12
2017-10-25T06:46:03.451Z,1008.13
2017-10-25T06:47:04.856Z,1008.14
2017-10-25T06:48:06.793Z,1008.16
2017-10-25T06:49:08.225Z,1008.09
2017-10-25T06:50:09.654Z,1008.18
2017-10-25T06:51:11.136Z,1008.15
2017-10-25T06:52:12.561Z,1008.16
2017-10-25T06:53:13.989Z,1008.11
2017-10-25T06:54:15.415Z,1008.14
2017-10-25T06:55:16.857Z,1008.17
2017-10-25T06:56:18.281Z,1008.23
2017-10-25T06:57:19.710Z,1008.22
2017-10-25T06:58:21.140Z,1008.25
2017-10-25T06:59:22.566Z,1008.21
2017-10-25T07:00:23.985Z,1008.22
2017-10-25T07:01:25.416Z,1008.30
2017-10-25T07:02:26.834Z,1008.25
2017-10-25T07:03:28.261Z,1008.24
2017-10-25T07:04:29.688Z,1008.27
2017-10-25T07:05:31.111Z,1008.25
2017-10-25T07:06:32.532Z,1008.33
2017-10-25T07:07:33.960Z,1008.37
2017-10-25T07:08:35.390Z,1008.44
2017-10-25T07:09:36.809Z,1008.48
2017-10-25T07:10:38.228Z,1008.59
2017-10-25T07:11:39.655Z,1008.54
2017-10-25T07:12:41.075Z,1008.54
2017-10-25T07:13:42.506Z,1008.63
2017-10-25T07:14:43.945Z,1008.67
2017-10-25T07:15:45.382Z,1008.67
2017-10-25T07:16:46.805Z,1008.69
2017-10-25T07:17:48.255Z,1008.71
2017-10-25T07:18:49.671Z,1008.76
2017-10-25T07:19:51.095Z,1008.80
2017-10-25T07:20:52.528Z,1008.80
2017-10-25T07:21:53.949Z,1008.82
2017-10-25T07:22:55.375Z,1008.79
2017-10-25T07:23:56.799Z,1008.70
2017-10-25T07:24:58.224Z,1008.75
2017-10-25T07:25:59.652Z,1008.72
2017-10-25T07:27:01.089Z,1008.78
2017-10-25T07:28:02.510Z,1008.76
2017-10-25T07:29:03.936Z,1008.77
2017-10-25T07:30:05.362Z,1008.79
2017-10-25T07:31:06.784Z,1008.84
2017-10-25T07:32:08.215Z,1008.90
2017-10-25T07:33:09.640Z,1008.98
2017-10-25T07:34:11.070Z,1008.94
2017-10-25T07:35:12.498Z,1008.98
2017-10-25T07:36:13.928Z,1008.97
2017-10-25T07:37:15.351Z,1008.97
2017-10-25T07:38:16.784Z,1009.00
2017-10-25T07:39:18.207Z,1008.92
2017-10-25T07:40:19.703Z,1008.96
2017-10-25T07:41:21.118Z,1008.95
2017-10-25T07:42:22.609Z,1009.02
2017-10-25T07:43:24.038Z,1008.94
2017-10-25T07:44:25.465Z,1008.90
2017-10-25T07:45:26.960Z,1008.94
2017-10-25T07:46:28.379Z,1008.92
2017-10-25T07:47:29.809Z,1008.96
2017-10-25T07:48:31.233Z,1008.96
2017-10-25T07:49:32.661Z,1009.05
2017-10-25T07:50:34.165Z,1009.03
2017-10-25T07:51:35.586Z,1009.01
2017-10-25T07:52:37.019Z,1008.96
2017-10-25T07:53:38.448Z,1009.04
2017-10-25T07:54:39.866Z,1009.05
2017-10-25T07:55:41.296Z,1009.09
2017-10-25T07:56:42.720Z,1009.12
2017-10-25T07:57:44.147Z,1009.14
2017-10-25T07:58:45.577Z,1009.06
2017-10-25T07:59:47.002Z,1009.08
2017-10-25T08:00:48.438Z,1009.12
2017-10-25T08:01:49.855Z,1009.14
2017-10-25T08:02:51.278Z,1009.19
2017-10-25T08:03:52.710Z,1009.19
2017-10-25T08:04:54.134Z,1009.17
2017-10-25T08:05:55.570Z,1009.22
2017-10-25T08:06:57.013Z,1009.14
2017-10-25T08:07:58.440Z,1009.11
2017-10-25T08:08:59.857Z,1009.06
2017-10-25T08:10:01.285Z,1009.13
2017-10-25T08:11:02.701Z,1009.14
2017-10-25T08:12:04.129Z,1009.09
2017-10-25T08:13:05.564Z,1009.18
2017-10-25T08:14:06.997Z,1009.11
2017-10-25T08:15:08.422Z,1009.12
2017-10-25T08:16:09.844Z,1009.02
2017-10-25T08:17:11.280Z,1009.09
2017-10-25T08:18:12.697Z,1008.98
2017-10-25T08:19:14.121Z,1009.01
2017-10-25T08:20:15.550Z,1008.92
2017-10-25T08:21:16.978Z,1008.96
2017-10-25T08:22:18.408Z,1008.94
2017-10-25T08:23:19.840Z,1008.92
2017-10-25T08:24:21.283Z,1008.97
2017-10-25T08:25:22.705Z,1009.01
2017-10-25T08:26:24.125Z,1009.00
2017-10-25T08:27:25.560Z,1009.06
2017-10-25T08:28:26.987Z,1008.99
2017-10-25T08:29:28.419Z,1008.97
2017-10-25T08:30:29.859Z,1009.02
2017-10-25T08:31:31.289Z,1009.01
2017-10-25T08:32:32.718Z,1009.02
2017-10-25T08:33:34.148Z,1009.04
2017-10-25T08:34:35.579Z,1008.98
2017-10-25T08:35:37.011Z,1008.99
2017-10-25T08:36:38.428Z,1009.00
2017-10-25T08:37:39.858Z,1008.96
2017-10-25T08:38:41.278Z,1008.96
2017-10-25T08:39:42.696Z,1009.08
2017-10-25T08:40:44.132Z,1009.07
2017-10-25T08:41:45.543Z,1009.07
2017-10-25T08:42:47.017Z,1009.08
2017-10-25T08:43:48.453Z,1009.15
2017-10-25T08:44:49.889Z,1009.14
2017-10-25T08:45:51.327Z,1009.10
2017-10-25T08:46:52.771Z,1009.12
2017-10-25T08:47:54.187Z,1009.07
2017-10-25T08:48:55.616Z,1009.09
2017-10-25T08:49:57.041Z,1009.12
2017-10-25T08:50:58.481Z,1009.08
2017-10-25T08:51:59.928Z,1009.13
2017-10-25T08:53:01.350Z,1009.08
2017-10-25T08:54:02.779Z,1009.06
2017-10-25T08:55:04.209Z,1008.96
2017-10-25T08:56:05.640Z,1009.07
2017-10-25T08:57:07.071Z,1009.13
2017-10-25T08:58:08.521Z,1009.08
2017-10-25T08:59:09.947Z,1009.04
2017-10-25T09:00:11.381Z,1008.94
2017-10-25T09:01:12.821Z,1009.02
2017-10-25T09:02:14.273Z,1009.04
2017-10-25T09:03:16.517Z,1008.98
2017-10-25T09:04:17.949Z,1009.04
2017-10-25T09:05:19.381Z,1009.09
2017-10-25T09:06:20.807Z,1009.05
2017-10-25T09:07:22.235Z,1009.04
2017-10-25T09:08:23.659Z,1009.06
2017-10-25T09:09:25.102Z,1009.08
2017-10-25T09:10:26.533Z,1009.02
2017-10-25T09:11:27.951Z,1009.00
2017-10-25T09:12:29.375Z,1009.19
2017-10-25T09:13:30.815Z,1009.17
2017-10-25T09:14:32.246Z,1009.23
2017-10-25T09:15:33.671Z,1009.25
2017-10-25T09:16:35.096Z,1009.25
2017-10-25T09:17:36.521Z,1009.27
2017-10-25T09:18:37.948Z,1009.23
2017-10-25T09:19:39.393Z,1009.30
2017-10-25T09:20:40.804Z,1009.26
2017-10-25T09:21:42.233Z,1009.22
2017-10-25T09:22:43.668Z,1009.25
2017-10-25T09:23:45.090Z,1009.32
2017-10-25T09:24:46.513Z,1009.31
2017-10-25T09:25:47.941Z,1009.38
2017-10-25T09:26:49.380Z,1009.33
2017-10-25T09:27:50.823Z,1009.34
2017-10-25T09:28:52.252Z,1009.28
2017-10-25T09:29:53.676Z,1009.37
2017-10-25T09:30:55.110Z,1009.30
2017-10-25T09:31:56.541Z,1009.25
2017-10-25T09:32:57.988Z,1009.40
2017-10-25T09:33:59.424Z,1009.41
2017-10-25T09:35:00.842Z,1009.34
2017-10-25T09:36:02.286Z,1009.36
2017-10-25T09:37:03.704Z,1009.36
2017-10-25T09:38:05.135Z,1009.34
2017-10-25T09:39:06.557Z,1009.47
2017-10-25T09:40:07.979Z,1009.42
2017-10-25T09:41:09.400Z,1009.38
2017-10-25T09:42:10.823Z,1009.45
2017-10-25T09:43:12.252Z,1009.53
2017-10-25T09:44:13.673Z,1009.52
2017-10-25T09:45:16.462Z,1009.47
2017-10-25T09:46:17.891Z,1009.51
2017-10-25T09:47:19.326Z,1009.52
2017-10-25T09:48:20.757Z,1009.54
2017-10-25T09:49:22.185Z,1009.56
2017-10-25T09:50:23.614Z,1009.52
2017-10-25T09:51:25.043Z,1009.65
2017-10-25T09:52:26.486Z,1009.57
2017-10-25T09:53:27.914Z,1009.51
2017-10-25T09:54:29.343Z,1009.59
2017-10-25T09:55:30.771Z,1009.62
2017-10-25T09:56:32.196Z,1009.59
2017-10-25T09:57:33.625Z,1009.60
2017-10-25T09:58:35.049Z,1009.60
2017-10-25T09:59:36.492Z,1009.61
2017-10-25T10:00:37.921Z,1009.65
2017-10-25T10:01:39.338Z,1009.71
2017-10-25T10:02:40.760Z,1009.69
2017-10-25T10:03:42.196Z,1009.76
2017-10-25T10:04:43.627Z,1009.69
2017-10-25T10:05:45.045Z,1009.76
2017-10-25T10:06:46.472Z,1009.65
2017-10-25T10:07:47.899Z,1009.80
2017-10-25T10:08:49.328Z,1009.73
2017-10-25T10:09:50.751Z,1009.75
2017-10-25T10:10:52.189Z,1009.83
2017-10-25T10:11:53.618Z,1009.74
2017-10-25T10:12:55.047Z,1009.79
2017-10-25T10:13:56.485Z,1009.76
2017-10-25T10:14:57.916Z,1009.74
2017-10-25T10:15:59.339Z,1009.73
2017-10-25T10:17:00.780Z,1009.77
2017-10-25T10:18:02.210Z,1009.77
2017-10-25T10:19:03.641Z,1009.79
2017-10-25T10:20:05.091Z,1009.76
2017-10-25T10:21:06.513Z,1009.77
2017-10-25T10:22:07.954Z,1009.76
2017-10-25T10:23:09.385Z,1009.82
2017-10-25T10:24:10.853Z,1009.84
2017-10-25T10:25:12.274Z,1009.87
2017-10-25T10:26:13.706Z,1009.77
2017-10-25T10:27:15.130Z,1009.89
2017-10-25T10:28:16.557Z,1009.88
2017-10-25T10:29:17.992Z,1009.87
2017-10-25T10:30:19.417Z,1009.95
2017-10-25T10:31:20.851Z,1009.91
2017-10-25T10:32:22.236Z,1009.88
2017-10-25T10:33:23.671Z,1009.93
2017-10-25T10:34:25.113Z,1009.89
2017-10-25T10:35:26.554Z,1009.90
2017-10-25T10:36:27.980Z,1010.01
2017-10-25T10:37:29.406Z,1009.94
2017-10-25T10:38:30.833Z,1009.92
2017-10-25T10:39:32.257Z,1009.96
2017-10-25T10:40:33.687Z,1009.98
2017-10-25T10:41:35.119Z,1009.95
2017-10-25T10:42:36.561Z,1009.94
2017-10-25T10:43:38.022Z,1009.96
2017-10-25T10:44:39.450Z,1009.93
2017-10-25T10:45:40.887Z,1009.95
2017-10-25T10:46:42.311Z,1010.00
2017-10-25T10:47:43.747Z,1009.94
2017-10-25T10:48:45.170Z,1009.93
2017-10-25T10:49:46.657Z,1009.99
2017-10-25T10:50:48.081Z,1009.97
2017-10-25T10:51:49.587Z,1010.00
2017-10-25T10:52:51.020Z,1009.99
2017-10-25T10:53:52.445Z,1010.01
2017-10-25T10:54:53.875Z,1010.03
2017-10-25T10:55:55.300Z,1009.97
2017-10-25T10:56:56.735Z,1010.02
2017-10-25T10:57:58.171Z,1010.01
2017-10-25T10:58:59.604Z,1010.00
2017-10-25T11:00:01.040Z,1010.02
2017-10-25T11:01:02.481Z,1009.95
2017-10-25T11:02:03.909Z,1009.99
2017-10-25T11:03:05.336Z,1009.99
2017-10-25T11:04:06.766Z,1010.02
2017-10-25T11:05:08.197Z,1010.02
2017-10-25T11:06:09.630Z,1009.98
2017-10-25T11:07:11.067Z,1010.03
2017-10-25T11:08:12.511Z,1010.05
2017-10-25T11:09:13.939Z,1010.05
2017-10-25T11:10:15.368Z,1010.00
2017-10-25T11:11:16.790Z,1009.98
2017-10-25T11:12:18.217Z,1009.91
2017-10-25T11:13:19.649Z,1009.90
2017-10-25T11:14:21.079Z,1009.97
2017-10-25T11:15:22.511Z,1009.96
2017-10-25T11:16:23.941Z,1009.98
2017-10-25T11:17:25.356Z,1009.96
2017-10-25T11:18:26.741Z,1009.96
2017-10-25T11:19:28.194Z,1009.99
2017-10-25T11:20:29.625Z,1010.01
2017-10-25T11:21:31.050Z,1009.99
2017-10-25T11:22:32.481Z,1009.97
2017-10-25T11:23:33.909Z,1009.98
2017-10-25T11:24:35.328Z,1009.99
2017-10-25T11:25:36.753Z,1009.96
2017-10-25T11:26:38.187Z,1009.98
2017-10-25T11:27:39.618Z,1009.96
2017-10-25T11:28:41.043Z,1009.98
2017-10-25T11:29:42.471Z,1009.98
2017-10-25T11:30:43.895Z,1009.94
2017-10-25T11:31:45.320Z,1009.93
2017-10-25T11:32:46.754Z,1009.97
2017-10-25T11:33:48.189Z,1010.00
2017-10-25T11:34:49.599Z,1010.03
2017-10-25T11:35:51.024Z,1010.03
2017-10-25T11:36:52.462Z,1010.06
2017-10-25T11:37:53.888Z,1010.01
2017-10-25T11:38:55.322Z,1009.97
2017-10-25T11:39:56.749Z,1009.98
2017-10-25T11:40:58.178Z,1009.99
2017-10-25T11:41:59.603Z,1010.01
2017-10-25T11:43:01.028Z,1010.01
2017-10-25T11:44:02.457Z,1010.02
2017-10-25T11:45:03.883Z,1009.97
2017-10-25T11:46:05.311Z,1010.01
2017-10-25T11:47:06.738Z,1010.05
2017-10-25T11:48:08.174Z,1010.00
2017-10-25T11:49:09.630Z,1010.11
2017-10-25T11:50:11.054Z,1010.13
2017-10-25T11:51:13.129Z,1010.11
2017-10-25T11:52:14.541Z,1010.04
2017-10-25T11:53:16.922Z,1010.09
2017-10-25T11:54:18.345Z,1010.07
2017-10-25T11:55:19.767Z,1010.07
2017-10-25T11:56:21.188Z,1010.07
2017-10-25T11:57:22.607Z,1010.10
2017-10-25T11:58:24.051Z,1010.14
2017-10-25T11:59:25.464Z,1010.08
2017-10-25T12:00:26.891Z,1010.12
2017-10-25T12:01:28.315Z,1010.07
2017-10-25T12:02:29.750Z,1010.04
2017-10-25T12:03:31.172Z,1010.04
2017-10-25T12:04:32.599Z,1010.04
2017-10-25T12:05:34.023Z,1010.04
2017-10-25T12:06:35.446Z,1010.00
2017-10-25T12:07:36.880Z,1009.98
2017-10-25T12:08:38.299Z,1009.97
2017-10-25T12:09:39.718Z,1010.03
2017-10-25T12:10:41.145Z,1010.07
2017-10-25T12:11:42.574Z,1010.09
2017-10-25T12:12:44.011Z,1010.12
2017-10-25T12:13:45.442Z,1010.18
2017-10-25T12:14:46.870Z,1010.14
2017-10-25T12:15:48.293Z,1010.17
2017-10-25T12:16:49.718Z,1010.21
2017-10-25T12:17:51.144Z,1010.20
2017-10-25T12:18:52.576Z,1010.17
2017-10-25T12:19:54.133Z,1010.22
2017-10-25T12:20:55.549Z,1010.20
2017-10-25T12:21:56.982Z,1010.27
2017-10-25T12:22:58.406Z,1010.24